Time;durP1;ratioP1;P1;durP2;ratioP2;P2;SDS_P1;SDS_P2;PMS_P1;PMS_P2;Temp;Humidity;BMP_temperature;BMP_pressure;BME280_temperature;BME280_humidity;BME280_pressure;Samples;Min_cycle;Max_cycle;Signal;HPM_P1;HPM_P2
2022/11/05 00:10:36;;;;;;;10.18;5.37;;;;;;;9.24;85.79;97707.03;1555856;92;25646;-64
2022/11/05 00:18:32;;;;;;;5.83;4.30;;;;;;;9.14;85.66;97713.66;1576966;90;25679;-64
2022/11/05 00:20:58;;;;;;;7.35;4.85;;;;;;;9.11;85.74;97725.23;1608857;88;25843;-64
2022/11/05 00:26:11;;;;;;;3.90;2.90;;;;;;;9.08;85.66;97724.53;1606965;89;25660;-64
2022/11/05 00:28:42;;;;;;;5.12;3.98;;;;;;;9.06;85.88;97724.07;1556129;92;25564;-64
2022/11/05 00:31:12;;;;;;;3.95;3.20;;;;;;;9.06;85.50;97724.85;1556441;92;27590;-64
2022/11/05 00:33:41;;;;;;;3.47;2.85;;;;;;;9.07;85.40;97718.83;1531733;93;25770;-64
2022/11/05 00:36:09;;;;;;;5.42;4.20;;;;;;;9.09;85.39;97723.39;1556154;92;25686;-64
2022/11/05 00:38:36;;;;;;;5.62;3.70;;;;;;;9.12;85.20;97725.47;1556560;90;25839;-64
2022/11/05 00:41:02;;;;;;;4.80;3.45;;;;;;;9.12;85.30;97728.20;1531860;92;25707;-64
2022/11/05 00:46:14;;;;;;;3.52;3.22;;;;;;;9.08;85.38;97728.07;1565933;90;25627;-64
2022/11/05 00:51:24;;;;;;;4.67;3.85;;;;;;;9.05;85.66;97735.55;1564599;90;25658;-64
2022/11/05 00:53:50;;;;;;;5.37;3.33;;;;;;;9.04;85.64;97732.01;1588157;88;25677;-64
2022/11/05 00:56:17;;;;;;;6.17;4.40;;;;;;;9.05;85.44;97731.45;1584031;89;27659;-64
2022/11/05 00:58:44;;;;;;;5.42;4.08;;;;;;;9.07;85.44;97737.97;1583702;90;25624;-64
2022/11/05 01:01:11;;;;;;;3.90;3.50;;;;;;;9.10;85.25;97732.63;1583849;90;25475;-64
2022/11/05 01:03:39;;;;;;;6.83;5.08;;;;;;;9.11;85.16;97738.91;1583666;90;25754;-64
2022/11/05 01:06:10;;;;;;;5.15;3.80;;;;;;;9.14;85.17;97734.16;1583869;90;25710;-64
2022/11/05 01:08:38;;;;;;;5.00;3.83;;;;;;;9.16;85.25;97740.11;1584031;89;26841;-64
2022/11/05 01:11:35;;;;;;;5.70;4.62;;;;;;;9.18;85.42;97740.56;1583693;90;25588;-64
2022/11/05 01:14:06;;;;;;;6.95;5.28;;;;;;;9.20;85.26;97746.52;1583794;89;25452;-64
2022/11/05 01:16:33;;;;;;;5.92;4.50;;;;;;;9.19;85.00;97755.05;1584024;89;26492;-64
2022/11/05 01:19:01;;;;;;;9.58;5.70;;;;;;;9.19;84.76;97755.86;1583723;90;25531;-64
2022/11/05 01:21:28;;;;;;;5.97;5.00;;;;;;;9.17;84.88;97751.27;1583926;90;27560;-64
2022/11/05 01:23:55;;;;;;;5.80;4.60;;;;;;;9.14;84.87;97747.82;1583876;90;25717;-64
2022/11/05 01:26:21;;;;;;;4.47;3.90;;;;;;;9.12;84.45;97746.78;1584279;90;25511;-64
2022/11/05 01:28:52;;;;;;;5.47;4.28;;;;;;;9.11;84.21;97749.28;1583925;89;25860;-64
2022/11/05 01:31:19;;;;;;;5.05;4.08;;;;;;;9.12;84.18;97744.59;1584267;89;25447;-64
2022/11/05 01:33:45;;;;;;;4.70;4.03;;;;;;;9.10;84.04;97733.99;1584047;89;27452;-64
2022/11/05 01:36:11;;;;;;;4.67;3.83;;;;;;;9.09;84.00;97735.13;1583646;89;25907;-64
2022/11/05 01:38:37;;;;;;;2.77;2.33;;;;;;;9.07;83.84;97737.37;1584107;89;25710;-64
2022/11/05 01:41:04;;;;;;;4.60;3.62;;;;;;;9.02;83.69;97740.30;1583660;90;27851;-64
2022/11/05 01:43:48;;;;;;;4.35;3.22;;;;;;;9.00;83.72;97748.02;1597872;88;25472;-64
2022/11/05 01:46:19;;;;;;;4.92;4.00;;;;;;;8.94;83.86;97759.70;1613812;88;27691;-64
2022/11/05 01:48:48;;;;;;;5.33;4.30;;;;;;;8.91;84.11;97772.08;1555082;91;25722;-64
2022/11/05 01:51:19;;;;;;;6.30;4.70;;;;;;;8.88;84.26;97770.55;1571383;91;25520;-64
2022/11/05 01:53:56;;;;;;;6.55;4.22;;;;;;;8.91;84.27;97768.54;1578688;90;25696;-64
2022/11/05 01:56:39;;;;;;;5.33;4.10;;;;;;;8.95;83.93;97774.17;1580154;90;25768;-64
2022/11/05 01:59:17;;;;;;;4.08;3.60;;;;;;;8.97;83.82;97780.91;1578210;90;27461;-64
2022/11/05 02:01:44;;;;;;;5.30;3.65;;;;;;;8.99;83.75;97789.59;1577180;90;25684;-65
2022/11/05 02:04:14;;;;;;;4.62;3.72;;;;;;;9.03;83.69;97799.30;1578275;90;25468;-64
2022/11/05 02:06:45;;;;;;;4.67;3.58;;;;;;;9.04;83.57;97814.00;1579998;90;25920;-64
2022/11/05 02:09:33;;;;;;;3.87;3.15;;;;;;;9.07;83.52;97814.48;1578316;90;25540;-64
2022/11/05 02:11:59;;;;;;;4.17;2.92;;;;;;;9.08;83.47;97814.16;1606568;89;28170;-64
2022/11/05 02:14:25;;;;;;;3.75;2.77;;;;;;;9.09;83.24;97806.20;1534286;92;25574;-64
2022/11/05 02:17:12;;;;;;;3.40;2.90;;;;;;;9.09;83.22;97800.73;1552537;92;25740;-64
2022/11/05 02:20:17;;;;;;;3.30;2.52;;;;;;;9.04;83.02;97803.06;1606094;89;25750;-65
2022/11/05 02:23:27;;;;;;;6.58;4.40;;;;;;;8.99;82.87;97812.01;1552775;92;25517;-64
2022/11/05 02:26:40;;;;;;;4.00;3.40;;;;;;;9.01;83.44;97831.63;1579931;90;27490;-64
2022/11/05 02:29:29;;;;;;;13.28;3.40;;;;;;;9.01;83.23;97831.05;1578489;90;25526;-64
2022/11/05 02:32:18;;;;;;;3.15;2.75;;;;;;;9.03;83.16;97826.63;1579915;90;25469;-64
2022/11/05 02:34:50;;;;;;;2.87;1.62;;;;;;;8.99;82.95;97842.06;1576671;90;25790;-64
2022/11/05 02:37:39;;;;;;;2.87;2.58;;;;;;;8.96;82.87;97830.42;1580142;90;25444;-65
2022/11/05 02:40:16;;;;;;;2.95;2.62;;;;;;;8.99;83.14;97845.61;1578375;90;27508;-65
2022/11/05 02:43:21;;;;;;;4.22;2.67;;;;;;;8.99;82.82;97848.34;1579586;90;25713;-64
2022/11/05 02:46:13;;;;;;;2.65;2.37;;;;;;;8.99;83.29;97853.00;1543228;92;25580;-64
2022/11/05 02:49:00;;;;;;;2.33;2.12;;;;;;;8.97;83.42;97846.49;1533858;93;25885;-65
2022/11/05 02:51:31;;;;;;;3.20;2.37;;;;;;;8.94;83.25;97854.52;1534116;93;25659;-65
2022/11/05 02:54:06;;;;;;;5.67;4.10;;;;;;;8.90;83.41;97861.99;1533467;93;27348;-64
2022/11/05 02:56:36;;;;;;;6.53;4.20;;;;;;;8.90;83.08;97861.21;1533767;93;25802;-65
2022/11/05 02:59:02;;;;;;;6.20;4.20;;;;;;;8.91;83.31;97862.80;1533722;93;25761;-65
2022/11/05 03:01:29;;;;;;;4.60;3.30;;;;;;;8.93;83.32;97866.59;1533850;93;25950;-64
2022/11/05 03:04:01;;;;;;;5.92;2.67;;;;;;;8.95;83.03;97874.69;1534096;93;25593;-65
2022/11/05 03:06:56;;;;;;;5.00;3.75;;;;;;;8.94;83.00;97881.84;1533985;93;27332;-65
2022/11/05 03:09:46;;;;;;;5.40;3.12;;;;;;;8.95;83.36;97888.94;1533558;93;25624;-65
2022/11/05 03:12:58;;;;;;;6.90;3.30;;;;;;;8.94;83.33;97882.66;1533585;93;25732;-65
2022/11/05 03:15:49;;;;;;;4.47;3.40;;;;;;;8.96;83.51;97890.53;1533582;93;25786;-65
2022/11/05 03:18:39;;;;;;;4.97;3.25;;;;;;;8.91;83.80;97887.40;1535349;93;25741;-65
2022/11/05 03:21:17;;;;;;;9.63;5.03;;;;;;;8.85;84.17;97894.95;1561816;91;26785;-65
2022/11/05 03:23:57;;;;;;;5.30;3.40;;;;;;;8.76;84.85;97896.33;1610400;88;25537;-65
2022/11/05 03:26:50;;;;;;;3.95;2.50;;;;;;;8.73;85.45;97896.16;1622620;88;25744;-64
2022/11/05 03:29:28;;;;;;;3.87;2.60;;;;;;;8.68;85.79;97897.66;1622036;88;26439;-64
2022/11/05 03:31:57;;;;;;;4.22;3.08;;;;;;;8.60;86.32;97906.09;1621842;88;25469;-65
2022/11/05 03:34:29;;;;;;;3.77;3.05;;;;;;;8.58;86.19;97907.77;1622388;88;28316;-65
2022/11/05 03:36:57;;;;;;;4.60;2.95;;;;;;;8.59;86.33;97904.48;1621779;88;25887;-65
2022/11/05 03:39:35;;;;;;;3.70;2.80;;;;;;;8.61;86.50;97895.42;1596905;88;25771;-65
2022/11/05 03:42:05;;;;;;;4.17;2.92;;;;;;;8.59;86.65;97903.13;1621924;88;25796;-64
2022/11/05 03:44:35;;;;;;;3.58;3.20;;;;;;;8.57;87.52;97907.54;1615236;88;25482;-65
2022/11/05 03:47:10;;;;;;;5.87;3.90;;;;;;;8.59;87.47;97910.77;1588992;89;27317;-64
2022/11/05 03:49:41;;;;;;;5.35;3.45;;;;;;;8.59;87.43;97925.78;1531653;93;25486;-64
2022/11/05 03:52:15;;;;;;;4.50;3.52;;;;;;;8.61;87.55;97930.93;1588805;89;25538;-65
2022/11/05 03:54:41;;;;;;;6.70;4.92;;;;;;;8.60;88.33;97942.95;1531486;93;26539;-65
2022/11/05 03:57:25;;;;;;;5.60;4.10;;;;;;;8.58;88.64;97946.01;1588959;89;25669;-64
2022/11/05 03:59:51;;;;;;;6.08;3.85;;;;;;;8.57;88.82;97943.04;1557071;92;27398;-64
2022/11/05 04:02:22;;;;;;;4.22;3.72;;;;;;;8.58;88.71;97943.86;1588476;89;27179;-64
2022/11/05 04:04:49;;;;;;;4.75;3.85;;;;;;;8.59;88.71;97953.09;1556918;92;25503;-64
2022/11/05 04:15:29;;;;;;;3.98;2.65;;;;;;;8.51;89.86;97953.29;1557051;92;25460;-64
2022/11/05 04:17:57;;;;;;;4.08;2.98;;;;;;;8.49;90.03;97957.47;1536393;92;25739;-64
2022/11/05 04:25:56;;;;;;;2.67;2.17;;;;;;;8.46;89.67;97973.12;1557090;92;25660;-64
2022/11/05 04:30:17;;;;;;;3.08;2.58;;;;;;;8.44;90.03;97976.71;1556843;92;27265;-64
2022/11/05 04:30:50;;;;;;;1.95;1.75;;;;;;;8.42;89.94;97977.03;1557017;91;25706;-64
2022/11/05 04:33:16;;;;;;;2.27;1.62;;;;;;;8.39;89.65;97980.39;1557121;92;26559;-64
2022/11/05 04:35:46;;;;;;;1.72;1.60;;;;;;;8.36;89.82;97982.38;1556994;91;25483;-64
2022/11/05 04:38:17;;;;;;;2.58;2.10;;;;;;;8.34;89.61;97981.34;1532025;93;27485;-64
2022/11/05 04:40:45;;;;;;;4.67;1.62;;;;;;;8.35;89.54;97988.98;1556869;92;25974;-64
2022/11/05 04:43:15;;;;;;;1.87;1.75;;;;;;;8.36;89.48;97994.67;1589036;89;25524;-64
2022/11/05 04:45:42;;;;;;;2.58;2.17;;;;;;;8.31;89.76;97996.98;1539154;91;26617;-64
2022/11/05 04:48:09;;;;;;;3.40;2.37;;;;;;;8.32;89.72;97993.12;1557905;92;25520;-63
2022/11/05 04:50:36;;;;;;;2.98;2.70;;;;;;;8.34;89.69;97998.27;1564838;91;27516;-64
2022/11/05 04:53:02;;;;;;;3.72;3.42;;;;;;;8.36;89.64;97992.76;1557790;92;25660;-64
2022/11/05 04:55:29;;;;;;;4.15;3.30;;;;;;;8.37;89.75;97997.09;1564694;91;25513;-64
2022/11/05 04:57:55;;;;;;;4.70;3.70;;;;;;;8.35;90.34;97989.77;1539988;93;26347;-64
2022/11/05 05:00:23;;;;;;;4.67;3.60;;;;;;;8.33;90.11;97988.48;1558318;92;25742;-64
2022/11/05 05:02:49;;;;;;;5.33;4.37;;;;;;;8.35;90.12;98000.68;1564690;91;27431;-64
2022/11/05 05:05:16;;;;;;;4.58;3.92;;;;;;;8.36;90.02;97994.67;1539779;93;25777;-64
2022/11/05 05:07:42;;;;;;;4.80;4.00;;;;;;;8.39;89.75;97993.49;1558001;92;25689;-64
2022/11/05 05:10:10;;;;;;;6.80;4.28;;;;;;;8.44;89.77;98000.73;1564973;91;25766;-64
2022/11/05 05:12:37;;;;;;;4.83;3.47;;;;;;;8.44;89.85;98001.29;1539694;93;25666;-64
2022/11/05 05:15:04;;;;;;;2.75;2.47;;;;;;;8.38;89.83;97997.32;1558291;92;27390;-64
2022/11/05 05:17:31;;;;;;;4.65;2.60;;;;;;;8.34;90.00;98000.45;1564929;91;25691;-64
2022/11/05 05:22:42;;;;;;;3.45;3.08;;;;;;;8.27;90.18;98014.53;1557977;92;25492;-63
2022/11/05 05:25:08;;;;;;;5.85;3.20;;;;;;;8.23;90.18;98012.78;1564702;91;25465;-63
2022/11/05 05:27:34;;;;;;;4.58;3.40;;;;;;;8.20;90.35;98014.77;1540215;91;27501;-63
2022/11/05 05:30:01;;;;;;;3.75;3.10;;;;;;;8.19;90.49;98013.14;1558127;92;25763;-67
2022/11/05 05:32:27;;;;;;;4.12;3.33;;;;;;;8.22;90.25;98018.78;1564598;91;25769;-68
2022/11/05 05:37:34;;;;;;;5.83;3.83;;;;;;;8.26;90.28;98027.95;1822112;78;25476;-68
2022/11/05 05:40:00;;;;;;;5.05;3.58;;;;;;;8.25;89.84;98026.90;1783901;79;25653;-67
2022/11/05 05:42:27;;;;;;;6.05;3.67;;;;;;;8.26;89.77;98023.07;1784063;80;28268;-67
2022/11/05 05:44:53;;;;;;;5.17;3.17;;;;;;;8.25;89.73;98033.17;1784198;80;25480;-67
2022/11/05 05:47:19;;;;;;;4.72;3.42;;;;;;;8.24;89.98;98037.58;1784042;80;25587;-67
2022/11/05 05:49:45;;;;;;;3.90;3.02;;;;;;;8.20;89.81;98038.75;1784148;79;25608;-69
2022/11/05 05:52:11;;;;;;;5.08;3.02;;;;;;;8.18;89.73;98039.64;1784187;80;26551;-69
2022/11/05 05:54:37;;;;;;;4.22;2.95;;;;;;;8.18;89.54;98045.66;1783807;80;27578;-69
2022/11/05 05:57:04;;;;;;;5.00;3.12;;;;;;;8.21;89.51;98051.85;1784055;80;25677;-69
2022/11/05 05:59:30;;;;;;;3.33;2.25;;;;;;;8.24;89.60;98061.59;1783814;80;25438;-69
2022/11/05 06:01:57;;;;;;;3.98;2.10;;;;;;;8.26;89.25;98069.48;1783628;80;25435;-70
2022/11/05 06:04:23;;;;;;;3.72;2.25;;;;;;;8.27;89.07;98071.86;1783674;80;25457;-70
2022/11/05 06:06:49;;;;;;;3.95;2.40;;;;;;;8.28;88.83;98081.69;1783670;80;27472;-69
2022/11/05 06:09:15;;;;;;;3.83;2.02;;;;;;;8.26;88.77;98074.36;1783989;80;25717;-69
2022/11/05 06:11:42;;;;;;;2.83;2.00;;;;;;;8.28;88.81;98077.59;1783615;80;25683;-69
2022/11/05 06:14:12;;;;;;;3.65;1.70;;;;;;;8.33;88.50;98078.56;1783941;80;25427;-69
2022/11/05 06:16:39;;;;;;;3.92;2.20;;;;;;;8.35;88.56;98081.22;1783775;80;25604;-69
2022/11/05 06:19:07;;;;;;;6.58;4.10;;;;;;;8.38;88.39;98082.54;1783727;80;29576;-69
2022/11/05 06:21:34;;;;;;;7.50;4.12;;;;;;;8.38;88.41;98085.27;1783583;79;25651;-69
2022/11/05 06:24:02;;;;;;;7.37;5.03;;;;;;;8.37;88.29;98100.02;1783649;80;25473;-69
2022/11/05 06:26:29;;;;;;;7.65;5.15;;;;;;;8.36;88.49;98110.70;1783946;80;25402;-69
2022/11/05 06:28:55;;;;;;;5.83;4.03;;;;;;;8.40;88.68;98115.23;1783619;80;25652;-69
2022/11/05 06:31:33;;;;;;;5.15;3.90;;;;;;;8.43;88.33;98120.61;1783930;79;27353;-69
2022/11/05 06:33:59;;;;;;;8.48;4.03;;;;;;;8.45;88.54;98123.03;1783953;80;25461;-69
2022/11/05 06:36:25;;;;;;;4.78;3.62;;;;;;;8.46;88.28;98126.03;1786011;80;25642;-68
2022/11/05 06:38:52;;;;;;;5.70;4.20;;;;;;;8.49;88.32;98126.19;1789842;80;25571;-69
2022/11/05 06:41:18;;;;;;;5.53;4.08;;;;;;;8.53;88.06;98122.28;1789530;79;25593;-69
2022/11/05 06:43:44;;;;;;;6.12;4.37;;;;;;;8.58;87.83;98128.20;1789881;80;27588;-69
2022/11/05 06:46:11;;;;;;;4.60;3.40;;;;;;;8.59;87.86;98130.62;1789976;80;25562;-68
2022/11/05 06:48:38;;;;;;;3.80;2.80;;;;;;;8.58;87.48;98141.86;1789452;79;25438;-69
2022/11/05 06:51:06;;;;;;;3.55;2.45;;;;;;;8.56;87.51;98144.09;1789185;79;25700;-69
2022/11/05 06:53:33;;;;;;;5.20;2.80;;;;;;;8.55;87.62;98157.50;1788509;79;25450;-69
2022/11/05 06:56:06;;;;;;;4.55;2.70;;;;;;;8.57;87.81;98162.08;1787528;80;27378;-68
2022/11/05 06:58:33;;;;;;;3.60;2.30;;;;;;;8.52;87.56;98169.27;1787376;80;25638;-69
2022/11/05 07:01:03;;;;;;;6.37;2.58;;;;;;;8.47;87.79;98172.14;1787325;80;25504;-69
2022/11/05 07:03:30;;;;;;;4.03;2.10;;;;;;;8.43;87.90;98172.50;1787659;80;25695;-69
2022/11/05 07:05:59;;;;;;;6.37;2.52;;;;;;;8.40;87.90;98176.66;1787551;80;25469;-68
2022/11/05 07:08:32;;;;;;;3.58;2.75;;;;;;;8.41;88.06;98172.02;1787625;80;27463;-69
2022/11/05 07:10:58;;;;;;;4.08;2.45;;;;;;;8.43;88.02;98183.99;1787414;80;25604;-68
2022/11/05 07:13:25;;;;;;;5.45;2.83;;;;;;;8.47;87.99;98183.61;1787583;80;25438;-69
2022/11/05 07:15:52;;;;;;;5.25;3.00;;;;;;;8.52;87.90;98187.02;1787116;80;25670;-68
2022/11/05 07:18:19;;;;;;;5.25;3.87;;;;;;;8.56;87.76;98183.69;1787350;80;25663;-69
2022/11/05 07:20:45;;;;;;;3.83;3.10;;;;;;;8.60;87.76;98188.77;1787402;80;27320;-69
2022/11/05 07:23:13;;;;;;;4.05;2.72;;;;;;;8.62;87.75;98196.92;1787413;80;25777;-69
2022/11/05 07:25:41;;;;;;;5.15;3.42;;;;;;;8.58;87.78;98197.27;1787461;80;25620;-69
2022/11/05 07:28:09;;;;;;;7.00;3.45;;;;;;;8.55;87.90;98202.57;1787545;80;25434;-69
2022/11/05 07:30:36;;;;;;;3.42;2.90;;;;;;;8.51;88.10;98207.80;1787592;80;25398;-69
2022/11/05 07:33:03;;;;;;;5.00;3.33;;;;;;;8.48;88.33;98207.06;1787395;80;27408;-68
2022/11/05 07:35:30;;;;;;;4.90;3.70;;;;;;;8.45;88.37;98205.77;1787213;80;25654;-68
2022/11/05 07:37:56;;;;;;;5.60;3.37;;;;;;;8.45;88.39;98211.23;1784775;80;25730;-68
2022/11/05 07:40:26;;;;;;;5.45;2.45;;;;;;;8.49;88.37;98214.16;1784648;80;25466;-69
2022/11/05 07:42:56;;;;;;;4.65;2.80;;;;;;;8.50;88.79;98215.77;1785071;80;25651;-68
2022/11/05 07:45:24;;;;;;;9.07;3.50;;;;;;;8.49;88.60;98215.52;1784870;80;28168;-68
2022/11/05 07:47:57;;;;;;;7.42;3.67;;;;;;;8.51;88.66;98220.91;1784598;80;25496;-68
2022/11/05 07:50:27;;;;;;;5.65;3.45;;;;;;;8.53;88.83;98211.05;1784464;80;25626;-68
2022/11/05 07:52:55;;;;;;;3.42;2.72;;;;;;;8.57;88.72;98212.61;1784879;80;25671;-68
2022/11/05 07:55:21;;;;;;;3.72;2.72;;;;;;;8.58;88.37;98213.66;1784046;80;25679;-68
2022/11/05 07:57:50;;;;;;;4.45;3.00;;;;;;;8.54;88.73;98211.31;1784764;80;27305;-68
2022/11/05 08:00:21;;;;;;;3.60;3.00;;;;;;;8.55;88.92;98212.13;1784763;80;25466;-69
2022/11/05 08:03:10;;;;;;;5.08;3.58;;;;;;;8.57;88.83;98219.43;1784361;80;25567;-68
2022/11/05 08:05:40;;;;;;;7.30;3.40;;;;;;;8.55;89.15;98221.11;1784981;80;25599;-68
2022/11/05 08:08:08;;;;;;;4.37;3.15;;;;;;;8.56;88.71;98227.39;1784950;80;25689;-68
2022/11/05 08:10:36;;;;;;;5.05;3.92;;;;;;;8.58;88.89;98225.95;1784972;80;28177;-68
2022/11/05 08:13:03;;;;;;;5.65;3.62;;;;;;;8.61;89.01;98222.59;1784841;80;25635;-68
2022/11/05 08:15:30;;;;;;;6.08;3.47;;;;;;;8.63;88.54;98227.20;1784979;80;25746;-68
2022/11/05 08:18:13;;;;;;;5.25;3.37;;;;;;;8.68;88.51;98231.73;1784873;80;25454;-68
2022/11/05 08:20:41;;;;;;;4.78;3.00;;;;;;;8.70;88.15;98234.16;1784445;80;25717;-68
2022/11/05 08:23:08;;;;;;;4.35;2.67;;;;;;;8.70;88.02;98241.80;1784820;80;27423;-68
2022/11/05 08:25:34;;;;;;;2.65;2.25;;;;;;;8.66;88.30;98237.50;1784606;80;25734;-68
2022/11/05 08:28:09;;;;;;;3.17;2.40;;;;;;;8.65;88.26;98241.91;1784940;80;25643;-68
2022/11/05 08:30:36;;;;;;;3.33;2.27;;;;;;;8.65;88.12;98239.19;1784636;80;25458;-68
2022/11/05 08:33:06;;;;;;;3.58;2.58;;;;;;;8.63;88.31;98244.14;1784649;80;25517;-68
2022/11/05 08:35:35;;;;;;;4.42;2.80;;;;;;;8.63;88.27;98245.50;1785028;80;27477;-68
2022/11/05 08:38:05;;;;;;;4.92;2.75;;;;;;;8.65;88.31;98248.74;1771331;80;25613;-67
2022/11/05 08:40:34;;;;;;;3.72;2.58;;;;;;;8.70;88.23;98250.55;1768290;81;25499;-67
2022/11/05 08:43:04;;;;;;;3.72;2.52;;;;;;;8.69;88.38;98248.94;1768132;81;25936;-67
2022/11/05 08:45:30;;;;;;;3.42;2.80;;;;;;;8.68;88.40;98250.85;1768410;81;25599;-67
2022/11/05 08:48:08;;;;;;;4.25;2.40;;;;;;;8.70;88.48;98248.63;1767961;81;27463;-67
2022/11/05 08:50:36;;;;;;;4.20;2.80;;;;;;;8.75;88.48;98249.06;1766265;81;25742;-65
2022/11/05 08:53:04;;;;;;;5.37;3.30;;;;;;;8.81;88.58;98258.72;1767938;81;25439;-65
2022/11/05 08:55:30;;;;;;;5.30;3.45;;;;;;;8.85;88.45;98253.45;1768238;81;25400;-64
2022/11/05 08:58:04;;;;;;;4.33;3.40;;;;;;;8.87;88.31;98254.73;1768232;81;25467;-65
2022/11/05 09:00:34;;;;;;;4.92;3.25;;;;;;;8.91;88.43;98255.75;1768290;81;28291;-65
2022/11/05 09:03:02;;;;;;;8.10;3.50;;;;;;;8.95;88.67;98255.13;1768517;81;25701;-65
2022/11/05 09:05:30;;;;;;;3.98;3.10;;;;;;;9.01;88.71;98257.97;1768571;81;25489;-65
2022/11/05 09:07:56;;;;;;;5.67;3.80;;;;;;;9.05;88.52;98261.69;1768182;81;25453;-64
2022/11/05 09:10:24;;;;;;;6.95;3.85;;;;;;;9.01;88.49;98257.39;1768370;81;25639;-64
2022/11/05 09:12:50;;;;;;;6.10;4.08;;;;;;;9.02;89.01;98255.48;1767928;81;27798;-64
2022/11/05 09:15:16;;;;;;;6.78;4.47;;;;;;;9.03;88.67;98260.63;1767869;81;25474;-64
2022/11/05 09:17:42;;;;;;;6.37;4.42;;;;;;;9.05;88.68;98268.52;1767703;81;25711;-64
2022/11/05 09:20:11;;;;;;;8.00;5.08;;;;;;;9.07;88.92;98270.36;1768400;81;25648;-64
2022/11/05 09:22:37;;;;;;;9.58;5.30;;;;;;;9.07;88.39;98272.30;1768133;81;25657;-64
2022/11/05 09:25:06;;;;;;;6.87;4.72;;;;;;;9.10;88.55;98274.41;1767889;81;27495;-64
2022/11/05 09:27:33;;;;;;;6.35;4.50;;;;;;;9.12;88.69;98278.98;1768471;81;25399;-64
2022/11/05 09:30:00;;;;;;;7.40;5.00;;;;;;;9.21;88.79;98281.80;1767741;81;25485;-64
2022/11/05 09:32:26;;;;;;;10.25;5.62;;;;;;;9.25;88.55;98289.60;1768027;81;25414;-64
2022/11/05 09:34:52;;;;;;;10.88;6.65;;;;;;;9.25;88.45;98293.70;1767871;80;25434;-64
2022/11/05 09:37:20;;;;;;;10.93;7.53;;;;;;;9.23;88.56;98289.10;1767905;80;27953;-64
2022/11/05 09:39:47;;;;;;;11.73;7.67;;;;;;;9.23;88.65;98285.81;1767962;81;25896;-63
2022/11/05 09:42:16;;;;;;;11.22;6.65;;;;;;;9.30;88.93;98293.58;1767930;81;25494;-63
2022/11/05 09:45:00;;;;;;;9.78;6.70;;;;;;;9.24;88.50;98289.37;1767693;81;25603;-63
2022/11/05 09:47:37;;;;;;;11.08;6.53;;;;;;;9.22;88.74;98290.23;1766661;81;25667;-63
2022/11/05 09:50:08;;;;;;;11.43;7.05;;;;;;;9.21;89.00;98288.63;1768395;81;27498;-63
2022/11/05 09:52:34;;;;;;;;;;;;;;;9.24;89.19;98290.73;1747047;81;25423;-63
2022/11/05 09:55:06;;;;;;;8.75;6.20;;;;;;;9.26;88.88;98292.58;1767953;81;25419;-63
2022/11/05 09:57:38;;;;;;;;;;;;;;;9.26;89.00;98307.61;1770844;81;25654;-63
2022/11/05 10:00:08;;;;;;;9.88;5.62;;;;;;;9.26;89.20;98311.16;1766642;81;25696;-63
2022/11/05 10:02:42;;;;;;;10.85;6.60;;;;;;;9.22;89.02;98303.91;1768714;81;27556;-63
2022/11/05 10:05:12;;;;;;;7.17;5.20;;;;;;;9.24;89.36;98300.30;1766386;81;25767;-63
2022/11/05 10:07:49;;;;;;;8.23;5.33;;;;;;;9.31;89.47;98304.76;1768176;81;25588;-62
2022/11/05 10:10:39;;;;;;;9.88;6.28;;;;;;;9.38;89.24;98309.20;1767469;81;26089;-63
2022/11/05 10:13:35;;;;;;;8.30;5.60;;;;;;;9.45;89.24;98313.42;1765857;81;25571;-63
2022/11/05 10:16:24;;;;;;;7.45;5.62;;;;;;;9.48;89.27;98315.53;1768351;81;27460;-63
2022/11/05 10:19:20;;;;;;;7.47;5.70;;;;;;;9.48;88.91;98316.89;1768137;81;25479;-63
2022/11/05 10:21:45;;;;;;;7.62;5.28;;;;;;;9.52;89.18;98323.34;1767395;81;25706;-63
2022/11/05 10:24:15;;;;;;;8.50;6.22;;;;;;;9.53;89.25;98330.45;1768243;81;25592;-63
2022/11/05 10:26:45;;;;;;;8.53;5.92;;;;;;;9.53;89.22;98336.70;1767441;81;33280;-63
2022/11/05 10:29:17;;;;;;;8.60;6.12;;;;;;;9.47;89.07;98330.34;1768260;80;27282;-63
2022/11/05 10:31:44;;;;;;;9.50;6.90;;;;;;;9.43;89.31;98336.17;1768022;81;25826;-63
2022/11/05 10:34:12;;;;;;;10.55;7.20;;;;;;;9.39;89.79;98334.64;1768323;80;25449;-63
2022/11/05 10:36:39;;;;;;;6.72;5.37;;;;;;;9.38;89.41;98333.00;1768271;81;26392;-63
2022/11/05 10:39:17;;;;;;;9.75;6.97;;;;;;;9.33;89.52;98327.14;1784100;80;25414;-63
2022/11/05 10:42:26;;;;;;;7.62;6.75;;;;;;;9.36;89.61;98330.58;1784954;80;27382;-63
2022/11/05 10:45:00;;;;;;;10.10;7.37;;;;;;;9.35;89.76;98326.24;1784726;80;25655;-62
2022/11/05 10:47:54;;;;;;;9.43;6.92;;;;;;;9.31;90.22;98323.90;1785131;80;25759;-66
2022/11/05 10:50:29;;;;;;;8.88;6.62;;;;;;;9.33;90.60;98325.77;1785083;80;25604;-65
2022/11/05 10:53:02;;;;;;;9.38;6.60;;;;;;;9.40;90.36;98333.51;1785131;80;25716;-66
2022/11/05 10:55:34;;;;;;;7.78;6.10;;;;;;;9.44;90.18;98329.02;1754213;80;27765;-66
2022/11/05 10:58:18;;;;;;;7.45;6.35;;;;;;;9.46;90.07;98338.27;1785068;80;25639;-66
2022/11/05 11:00:56;;;;;;;8.05;6.40;;;;;;;9.46;89.99;98343.75;1785333;80;25591;-66
2022/11/05 11:03:46;;;;;;;8.23;5.67;;;;;;;9.48;90.00;98342.88;1785174;80;26252;-66
2022/11/05 11:06:33;;;;;;;9.60;6.62;;;;;;;9.51;90.35;98340.34;1784336;80;25445;-66
2022/11/05 11:09:07;;;;;;;11.40;6.47;;;;;;;9.50;89.96;98344.17;1785102;80;27423;-66
2022/11/05 11:11:41;;;;;;;9.60;6.15;;;;;;;9.54;90.01;98345.17;1784936;80;25692;-66
2022/11/05 11:14:16;;;;;;;7.70;6.45;;;;;;;9.56;89.80;98353.07;1785076;80;25684;-66
2022/11/05 11:16:50;;;;;;;7.37;5.97;;;;;;;9.53;89.99;98350.38;1785009;80;26140;-66
2022/11/05 11:19:32;;;;;;;8.50;6.53;;;;;;;9.53;89.84;98350.96;1784931;80;25456;-65
2022/11/05 11:22:12;;;;;;;8.10;6.20;;;;;;;9.49;90.07;98353.51;1784665;80;27525;-65
2022/11/05 11:24:46;;;;;;;7.72;5.78;;;;;;;9.43;90.14;98360.23;1785195;80;25518;-65
2022/11/05 11:27:29;;;;;;;8.58;6.10;;;;;;;9.42;90.02;98364.09;1784919;80;25414;-65
2022/11/05 11:30:02;;;;;;;9.60;6.58;;;;;;;9.43;90.04;98366.25;1785216;80;25595;-65
2022/11/05 11:32:38;;;;;;;11.12;6.20;;;;;;;9.46;90.02;98375.20;1785023;80;25422;-67
2022/11/05 11:35:09;;;;;;;8.63;6.17;;;;;;;9.47;89.82;98370.00;1785347;80;27277;-67
2022/11/05 11:37:40;;;;;;;7.65;5.50;;;;;;;9.43;89.92;98373.91;1782961;80;25529;-67
2022/11/05 11:40:23;;;;;;;9.55;6.03;;;;;;;9.43;89.87;98367.07;1784751;80;25690;-67
2022/11/05 11:42:57;;;;;;;8.90;5.85;;;;;;;9.45;89.77;98373.05;1784961;80;26139;-66
2022/11/05 11:45:47;;;;;;;9.38;6.00;;;;;;;9.50;89.88;98366.05;1785015;80;25624;-66
2022/11/05 11:48:27;;;;;;;8.33;5.70;;;;;;;9.57;89.82;98368.91;1785138;80;27921;-66
2022/11/05 11:50:54;;;;;;;10.63;6.53;;;;;;;9.60;89.30;98358.70;1784855;80;25679;-66
2022/11/05 11:53:29;;;;;;;11.18;7.10;;;;;;;9.60;89.43;98366.91;1785223;80;25622;-66
2022/11/05 11:56:13;;;;;;;9.23;6.45;;;;;;;9.62;89.45;98375.04;1783720;80;25492;-67
2022/11/05 11:58:46;;;;;;;12.35;7.55;;;;;;;9.61;89.26;98373.98;1702144;84;25706;-66
2022/11/05 12:01:52;;;;;;;10.15;6.78;;;;;;;9.56;89.34;98374.95;1702264;84;27451;-67
2022/11/05 12:04:33;;;;;;;8.38;5.90;;;;;;;9.51;89.36;98380.55;1701976;84;25947;-66
2022/11/05 12:07:28;;;;;;;8.15;6.50;;;;;;;9.48;89.62;98379.26;1702399;84;25540;-66
2022/11/05 12:10:15;;;;;;;9.13;6.25;;;;;;;9.48;89.62;98379.26;1701886;84;25504;-66
2022/11/05 12:12:56;;;;;;;10.55;6.65;;;;;;;9.47;89.32;98377.63;1702362;84;25655;-66
2022/11/05 12:15:45;;;;;;;10.32;6.55;;;;;;;9.50;89.44;98384.41;1702397;84;27454;-66
2022/11/05 12:18:34;;;;;;;11.40;7.30;;;;;;;9.53;89.15;98387.89;1700768;84;25693;-66
2022/11/05 12:21:09;;;;;;;7.67;5.92;;;;;;;9.54;89.20;98381.29;1697985;84;25517;-66
2022/11/05 12:24:08;;;;;;;9.90;5.97;;;;;;;9.56;89.24;98391.92;1701273;84;25539;-66
2022/11/05 12:26:39;;;;;;;9.55;6.37;;;;;;;9.56;88.90;98387.81;1701874;84;25731;-66
2022/11/05 12:29:29;;;;;;;11.08;6.92;;;;;;;9.60;88.90;98392.34;1701588;84;28258;-66
2022/11/05 12:32:44;;;;;;;14.45;8.33;;;;;;;9.56;88.68;98393.28;1701800;84;25472;-66
2022/11/05 12:35:42;;;;;;;9.98;6.00;;;;;;;9.57;88.97;98399.81;1735674;80;25680;-67
2022/11/05 12:38:16;;;;;;;9.15;5.60;;;;;;;9.56;88.82;98401.50;1784130;80;26152;-66
2022/11/05 12:41:06;;;;;;;6.12;4.50;;;;;;;9.55;88.84;98403.41;1784619;80;25689;-66
2022/11/05 12:43:49;;;;;;;8.50;5.58;;;;;;;9.49;88.60;98397.27;1784844;80;27851;-66
2022/11/05 12:47:05;;;;;;;6.37;5.45;;;;;;;9.43;89.10;98396.34;1784930;80;25632;-66
2022/11/05 12:50:10;;;;;;;6.37;4.83;;;;;;;9.37;89.19;98397.03;1784811;80;25643;-66
2022/11/05 12:53:03;;;;;;;7.37;5.97;;;;;;;9.33;89.12;98400.16;1782583;80;26205;-66